createdAt,value
2022-11-27T00:00:04.973Z,99324.66
2022-11-27T00:02:42.662Z,99312.63
2022-11-27T00:05:13.089Z,99316.13
2022-11-27T00:07:43.381Z,99314.00
2022-11-27T00:10:14.881Z,99308.06
2022-11-27T00:12:47.563Z,99308.84
2022-11-27T00:15:18.758Z,99309.59
2022-11-27T00:17:48.743Z,99307.47
2022-11-27T00:20:18.989Z,99304.78
2022-11-27T00:22:48.974Z,99297.88
2022-11-27T00:25:19.228Z,99293.47
2022-11-27T00:27:51.835Z,99297.63
2022-11-27T00:30:22.309Z,99283.44
2022-11-27T00:32:52.287Z,99280.66
2022-11-27T00:35:22.333Z,99279.16
2022-11-27T00:37:52.379Z,99276.44
2022-11-27T00:40:22.641Z,99284.91
2022-11-27T00:42:55.296Z,99284.22
2022-11-27T00:45:25.708Z,99279.72
2022-11-27T00:47:56.128Z,99279.06
2022-11-27T00:50:26.219Z,99264.88
2022-11-27T00:52:56.259Z,99261.72
2022-11-27T00:55:26.268Z,99252.53
2022-11-27T00:57:58.785Z,99241.81
2022-11-27T01:00:29.286Z,99239.00
2022-11-27T01:02:59.427Z,99238.16
2022-11-27T01:05:29.500Z,99224.66
2022-11-27T01:07:59.526Z,99225.56
2022-11-27T01:10:29.661Z,99229.47
2022-11-27T01:13:02.248Z,99228.19
2022-11-27T01:15:32.484Z,99222.13
2022-11-27T01:18:02.539Z,99224.31
2022-11-27T01:20:32.631Z,99218.25
2022-11-27T01:23:02.680Z,99221.63
2022-11-27T01:25:32.675Z,99214.03
2022-11-27T01:28:05.633Z,99214.84
2022-11-27T01:30:35.637Z,99209.13
2022-11-27T01:33:05.620Z,99208.56
2022-11-27T01:35:36.261Z,99208.31
2022-11-27T01:38:06.665Z,99196.78
2022-11-27T01:40:36.712Z,99192.47
2022-11-27T01:43:17.088Z,99191.03
2022-11-27T01:45:48.077Z,99190.50
2022-11-27T01:48:18.127Z,99190.50
2022-11-27T01:50:48.133Z,99182.38
2022-11-27T01:53:22.178Z,99186.03
2022-11-27T01:55:58.758Z,99180.94
2022-11-27T01:58:33.904Z,99175.69
2022-11-27T02:01:04.542Z,99170.41
2022-11-27T02:03:36.380Z,99172.63
2022-11-27T02:06:06.892Z,99170.38
2022-11-27T02:08:36.925Z,99166.53
2022-11-27T02:11:16.792Z,99169.59
2022-11-27T02:13:59.411Z,99171.44
2022-11-27T02:16:40.072Z,99164.69
2022-11-27T02:19:28.252Z,99159.88
2022-11-27T02:22:18.573Z,99163.84
2022-11-27T02:24:59.467Z,99158.84
2022-11-27T02:28:00.863Z,99160.38
2022-11-27T02:30:40.771Z,99159.28
2022-11-27T02:33:17.304Z,99150.81
2022-11-27T02:35:57.548Z,99151.03
2022-11-27T02:38:35.387Z,99161.84
2022-11-27T02:41:13.594Z,99169.75
2022-11-27T02:43:48.332Z,99160.84
2022-11-27T02:46:23.502Z,99150.44
2022-11-27T02:48:59.827Z,99156.34
2022-11-27T02:51:39.163Z,99158.47
2022-11-27T02:54:16.613Z,99163.53
2022-11-27T02:56:49.787Z,99151.09
2022-11-27T02:59:22.605Z,99154.13
2022-11-27T03:02:03.027Z,99149.28
2022-11-27T03:04:40.664Z,99146.41
2022-11-27T03:07:17.448Z,99144.91
2022-11-27T03:09:52.717Z,99128.97
2022-11-27T03:12:23.056Z,99140.13
2022-11-27T03:14:53.160Z,99137.34
2022-11-27T03:17:51.591Z,99141.25
2022-11-27T03:20:28.393Z,99136.59
2022-11-27T03:22:59.357Z,99135.31
2022-11-27T03:25:29.423Z,99140.03
2022-11-27T03:28:05.586Z,99139.63
2022-11-27T03:30:35.728Z,99137.78
2022-11-27T03:33:08.327Z,99132.44
2022-11-27T03:35:38.467Z,99134.84
2022-11-27T03:38:08.977Z,99120.47
2022-11-27T03:40:51.700Z,99126.63
2022-11-27T03:43:28.424Z,99128.63
2022-11-27T03:46:04.029Z,99126.78
2022-11-27T03:48:45.245Z,99131.00
2022-11-27T03:51:23.933Z,99134.56
2022-11-27T03:54:06.725Z,99132.41
2022-11-27T03:56:44.501Z,99132.41
2022-11-27T03:59:22.926Z,99135.72
2022-11-27T04:01:53.103Z,99138.88
2022-11-27T04:04:25.753Z,99139.75
2022-11-27T04:06:55.762Z,99130.13
2022-11-27T04:09:26.074Z,99125.84
2022-11-27T04:11:56.124Z,99119.31
2022-11-27T04:14:26.137Z,99113.50
2022-11-27T04:16:56.133Z,99118.22
2022-11-27T04:19:28.737Z,99116.00
2022-11-27T04:21:58.918Z,99121.72
2022-11-27T04:24:28.921Z,99123.16
2022-11-27T04:26:58.927Z,99119.31
2022-11-27T04:29:29.009Z,99114.00
2022-11-27T04:31:59.060Z,99116.69
2022-11-27T04:34:31.791Z,99122.03
2022-11-27T04:37:02.113Z,99113.16
2022-11-27T04:39:32.179Z,99118.34
2022-11-27T04:42:02.211Z,99101.00
2022-11-27T04:44:32.187Z,99093.69
2022-11-27T04:47:02.816Z,99093.22
2022-11-27T04:49:35.601Z,99098.13
2022-11-27T04:52:06.272Z,99091.69
2022-11-27T04:54:36.388Z,99091.50
2022-11-27T04:57:06.566Z,99092.16
2022-11-27T04:59:36.628Z,99083.50
2022-11-27T05:02:06.824Z,99091.84
2022-11-27T05:04:39.807Z,99093.38
2022-11-27T05:07:10.185Z,99091.53
2022-11-27T05:09:40.363Z,99095.63
2022-11-27T05:12:10.653Z,99098.53
2022-11-27T05:14:40.830Z,99088.88
2022-11-27T05:17:12.750Z,99082.91
2022-11-27T05:19:45.636Z,99078.00
2022-11-27T05:22:15.648Z,99068.19
2022-11-27T05:24:45.753Z,99060.94
2022-11-27T05:27:15.950Z,99063.25
2022-11-27T05:29:46.080Z,99067.28
2022-11-27T05:32:16.080Z,99068.44
2022-11-27T05:34:49.656Z,99060.75
2022-11-27T05:37:20.250Z,99055.53
2022-11-27T05:39:50.284Z,99064.31
2022-11-27T05:42:20.303Z,99051.69
2022-11-27T05:44:55.244Z,99057.53
2022-11-27T05:47:28.092Z,99056.31
2022-11-27T05:50:00.790Z,99053.59
2022-11-27T05:52:30.830Z,99059.47
2022-11-27T05:55:00.873Z,99066.00
2022-11-27T05:57:31.047Z,99066.16
2022-11-27T06:00:01.457Z,99064.66
2022-11-27T06:02:32.882Z,99061.63
2022-11-27T06:05:05.821Z,99061.47
2022-11-27T06:07:35.935Z,99068.72
2022-11-27T06:10:06.576Z,99071.16
2022-11-27T06:12:36.610Z,99074.44
2022-11-27T06:15:07.755Z,99068.25
2022-11-27T06:17:37.755Z,99076.03
2022-11-27T06:20:12.189Z,99067.63
2022-11-27T06:22:42.440Z,99077.25
2022-11-27T06:25:13.050Z,99064.06
2022-11-27T06:27:43.121Z,99070.97
2022-11-27T06:30:15.174Z,99067.28
2022-11-27T06:32:45.209Z,99077.25
2022-11-27T06:35:18.016Z,99077.72
2022-11-27T06:37:48.018Z,99075.56
2022-11-27T06:40:18.295Z,99077.00
2022-11-27T06:42:48.329Z,99079.50
2022-11-27T06:45:18.635Z,99087.66
2022-11-27T06:47:48.648Z,99085.22
2022-11-27T06:50:21.729Z,99092.97
2022-11-27T06:52:51.756Z,99084.16
2022-11-27T06:55:21.765Z,99077.06
2022-11-27T06:57:53.768Z,99071.69
2022-11-27T07:00:24.185Z,99065.81
2022-11-27T07:02:57.624Z,99057.81
2022-11-27T07:05:30.380Z,99064.75
2022-11-27T07:08:02.175Z,99064.06
2022-11-27T07:10:32.230Z,99055.84
2022-11-27T07:13:02.270Z,99055.59
2022-11-27T07:15:32.621Z,99060.53
2022-11-27T07:18:02.624Z,99070.69
2022-11-27T07:20:35.847Z,99079.00
2022-11-27T07:23:05.980Z,99072.63
2022-11-27T07:25:36.028Z,99068.06
2022-11-27T07:28:06.021Z,99062.09
2022-11-27T07:30:36.483Z,99062.59
2022-11-27T07:33:07.117Z,99067.66
2022-11-27T07:35:39.724Z,99050.16
2022-11-27T07:38:09.772Z,99038.50
2022-11-27T07:40:41.323Z,99031.16
2022-11-27T07:43:11.380Z,99022.75
2022-11-27T07:45:41.449Z,99025.78
2022-11-27T07:48:11.554Z,99023.53
2022-11-27T07:50:45.186Z,99016.00
2022-11-27T07:53:15.326Z,99013.84
2022-11-27T07:55:45.799Z,99011.88
2022-11-27T07:58:15.899Z,99017.13
2022-11-27T08:00:45.967Z,99015.66
2022-11-27T08:03:16.702Z,99008.31
2022-11-27T08:05:49.325Z,99003.78
2022-11-27T08:08:19.377Z,99003.28
2022-11-27T08:10:49.372Z,99003.88
2022-11-27T08:13:19.419Z,98998.38
2022-11-27T08:15:49.528Z,99000.63
2022-11-27T08:18:19.770Z,99003.59
2022-11-27T08:20:52.364Z,99008.25
2022-11-27T08:23:22.362Z,99009.66
2022-11-27T08:25:52.437Z,99010.50
2022-11-27T08:28:22.517Z,98996.50
2022-11-27T08:31:00.137Z,98989.25
2022-11-27T08:33:30.398Z,98978.75
2022-11-27T08:36:03.393Z,98984.25
2022-11-27T08:38:33.603Z,98980.84
2022-11-27T08:41:06.779Z,98994.00
2022-11-27T08:43:37.873Z,98986.88
2022-11-27T08:46:09.927Z,98980.66
2022-11-27T08:48:40.400Z,98974.72
2022-11-27T08:51:16.284Z,98977.59
2022-11-27T08:53:46.857Z,98982.25
2022-11-27T08:56:20.307Z,98970.13
2022-11-27T08:58:51.092Z,98965.06
2022-11-27T09:01:24.793Z,98967.56
2022-11-27T09:03:55.270Z,98961.81
2022-11-27T09:06:31.256Z,98954.00
2022-11-27T09:09:03.970Z,98957.97
2022-11-27T09:11:35.813Z,98948.94
2022-11-27T09:14:08.779Z,98944.16
2022-11-27T09:16:39.234Z,98936.38
2022-11-27T09:19:09.280Z,98946.63
2022-11-27T09:21:42.010Z,98953.09
2022-11-27T09:24:12.581Z,98955.16
2022-11-27T09:26:44.768Z,98957.75
2022-11-27T09:29:14.941Z,98969.75
2022-11-27T09:31:45.215Z,98969.63
2022-11-27T09:34:15.503Z,98959.50
2022-11-27T09:36:48.713Z,98957.41
2022-11-27T09:39:19.593Z,98954.69
2022-11-27T09:41:54.115Z,98952.56
2022-11-27T09:44:36.781Z,98942.94
2022-11-27T09:47:17.830Z,98933.03
2022-11-27T09:49:53.607Z,98924.38
2022-11-27T09:52:37.661Z,98904.22
2022-11-27T09:55:20.497Z,98921.31
2022-11-27T09:58:04.740Z,98928.59
2022-11-27T10:00:35.008Z,98939.22
2022-11-27T10:03:05.304Z,98926.91
2022-11-27T10:05:45.514Z,98907.41
2022-11-27T10:08:38.067Z,98905.06
2022-11-27T10:11:25.526Z,98898.38
2022-11-27T10:14:13.590Z,98892.53
2022-11-27T10:16:52.004Z,98887.94
2022-11-27T10:19:39.623Z,98879.88
2022-11-27T10:22:21.177Z,98879.34
2022-11-27T10:25:10.092Z,98871.09
2022-11-27T10:27:48.080Z,98868.31
2022-11-27T10:30:22.291Z,98857.72
2022-11-27T10:32:58.355Z,98864.28
2022-11-27T10:35:31.781Z,98865.09
2022-11-27T10:38:07.342Z,98859.41
2022-11-27T10:40:46.740Z,98854.09
2022-11-27T10:43:22.745Z,98852.41
2022-11-27T10:45:56.979Z,98859.94
2022-11-27T10:48:27.852Z,98861.75
2022-11-27T10:50:59.092Z,98855.16
2022-11-27T10:53:33.319Z,98840.75
2022-11-27T10:56:39.436Z,98840.47
2022-11-27T10:59:15.541Z,98840.50
2022-11-27T11:01:50.079Z,98830.66
2022-11-27T11:04:38.756Z,98829.03
2022-11-27T11:07:28.688Z,98822.97
2022-11-27T11:09:59.768Z,98817.19
2022-11-27T11:12:33.219Z,98811.09
2022-11-27T11:15:04.919Z,98802.31
2022-11-27T11:17:37.892Z,98803.03
2022-11-27T11:20:21.832Z,98789.81
2022-11-27T11:22:52.561Z,98784.34
2022-11-27T11:25:24.710Z,98774.91
2022-11-27T11:27:58.231Z,98773.38
2022-11-27T11:30:34.758Z,98775.47
2022-11-27T11:33:07.530Z,98771.97
2022-11-27T11:35:39.961Z,98757.44
2022-11-27T11:38:21.347Z,98744.25
2022-11-27T11:41:03.475Z,98725.56
2022-11-27T11:43:39.353Z,98717.22
2022-11-27T11:46:22.870Z,98711.16
2022-11-27T11:49:03.738Z,98718.00
2022-11-27T11:52:07.587Z,98719.91
2022-11-27T11:55:02.816Z,98714.03
2022-11-27T11:57:59.248Z,98708.91
2022-11-27T12:01:04.685Z,98709.78
2022-11-27T12:03:51.204Z,98709.66
2022-11-27T12:06:51.418Z,98689.44
2022-11-27T12:09:55.178Z,98688.94
2022-11-27T12:12:48.918Z,98687.31
2022-11-27T12:15:32.950Z,98673.63
2022-11-27T12:18:07.775Z,98669.31
2022-11-27T12:20:57.849Z,98678.47
2022-11-27T12:23:59.519Z,98666.16
2022-11-27T12:26:48.814Z,98661.16
2022-11-27T12:29:42.423Z,98656.34
2022-11-27T12:32:37.661Z,98643.63
2022-11-27T12:35:33.310Z,98639.88
2022-11-27T12:38:38.796Z,98639.75
2022-11-27T12:41:49.754Z,98628.41
2022-11-27T12:44:31.052Z,98626.72
2022-11-27T12:47:08.512Z,98634.81
2022-11-27T12:49:47.740Z,98635.25
2022-11-27T12:52:24.021Z,98625.59
2022-11-27T12:55:04.795Z,98619.47
2022-11-27T12:57:43.590Z,98612.59
2022-11-27T13:00:20.677Z,98606.63
2022-11-27T13:03:05.463Z,98606.34
2022-11-27T13:05:45.768Z,98605.78
2022-11-27T13:08:23.571Z,98603.94
2022-11-27T13:10:59.393Z,98593.00
2022-11-27T13:13:37.074Z,98591.16
2022-11-27T13:16:15.565Z,98594.97
2022-11-27T13:18:53.922Z,98597.06
2022-11-27T13:21:31.927Z,98593.72
2022-11-27T13:24:05.290Z,98585.69
2022-11-27T13:26:43.688Z,98585.06
2022-11-27T13:29:24.814Z,98577.47
2022-11-27T13:32:01.732Z,98575.75
2022-11-27T13:34:37.394Z,98567.06
2022-11-27T13:37:12.396Z,98567.38
2022-11-27T13:39:45.386Z,98562.47
2022-11-27T13:42:24.276Z,98557.88
2022-11-27T13:45:01.148Z,98562.81
2022-11-27T13:47:38.806Z,98562.19
2022-11-27T13:50:14.324Z,98554.59
2022-11-27T13:53:00.182Z,98552.03
2022-11-27T13:55:33.257Z,98551.09
2022-11-27T13:58:05.272Z,98552.66
2022-11-27T14:00:39.917Z,98548.25
2022-11-27T14:03:23.534Z,98552.38
2022-11-27T14:05:53.836Z,98547.28
2022-11-27T14:08:30.059Z,98551.88
2022-11-27T14:11:06.195Z,98552.69
2022-11-27T14:13:43.105Z,98544.91
2022-11-27T14:16:30.534Z,98546.31
2022-11-27T14:19:03.872Z,98544.13
2022-11-27T14:21:44.211Z,98541.41
2022-11-27T14:24:41.473Z,98546.66
2022-11-27T14:27:21.432Z,98545.84
2022-11-27T14:29:52.860Z,98531.25
2022-11-27T14:32:24.361Z,98522.53
2022-11-27T14:34:54.535Z,98525.38
2022-11-27T14:37:27.953Z,98525.56
2022-11-27T14:40:00.576Z,98518.72
2022-11-27T14:42:36.457Z,98517.47
2022-11-27T14:45:15.464Z,98508.59
2022-11-27T14:47:52.349Z,98507.63
2022-11-27T14:50:26.245Z,98498.94
2022-11-27T14:53:00.117Z,98492.59
2022-11-27T14:55:34.837Z,98483.09
2022-11-27T14:58:05.696Z,98473.41
2022-11-27T15:00:35.955Z,98471.34
2022-11-27T15:03:12.727Z,98462.00
2022-11-27T15:05:42.969Z,98459.63
2022-11-27T15:08:14.034Z,98457.09
2022-11-27T15:10:46.805Z,98449.03
2022-11-27T15:13:26.740Z,98455.53
2022-11-27T15:16:03.690Z,98447.41
2022-11-27T15:18:38.856Z,98443.28
2022-11-27T15:21:14.733Z,98446.91
2022-11-27T15:23:50.033Z,98450.56
2022-11-27T15:26:36.527Z,98446.91
2022-11-27T15:29:07.546Z,98446.91
2022-11-27T15:31:40.125Z,98439.78
2022-11-27T15:34:27.232Z,98430.22
2022-11-27T15:37:01.718Z,98433.69
2022-11-27T15:39:40.914Z,98434.78
2022-11-27T15:42:14.764Z,98428.72
2022-11-27T15:44:44.998Z,98420.97
2022-11-27T15:47:26.934Z,98422.25
2022-11-27T15:49:57.690Z,98421.94
2022-11-27T15:52:28.366Z,98415.06
2022-11-27T15:54:59.456Z,98406.56
2022-11-27T15:57:32.047Z,98404.97
2022-11-27T16:00:04.118Z,98410.94
2022-11-27T16:02:44.622Z,98411.41
2022-11-27T16:05:15.297Z,98415.56
2022-11-27T16:07:45.672Z,98416.72
2022-11-27T16:10:16.369Z,98423.03
2022-11-27T16:12:49.039Z,98422.81
2022-11-27T16:15:22.634Z,98420.28
2022-11-27T16:17:54.111Z,98424.09
2022-11-27T16:20:24.405Z,98421.94
2022-11-27T16:22:55.182Z,98426.56
2022-11-27T16:25:25.494Z,98425.00
2022-11-27T16:28:02.430Z,98423.38
2022-11-27T16:30:33.332Z,98432.25
2022-11-27T16:33:03.369Z,98426.66
2022-11-27T16:35:33.912Z,98431.88
2022-11-27T16:38:04.041Z,98432.00
2022-11-27T16:40:34.925Z,98427.22
2022-11-27T16:43:08.342Z,98422.47
2022-11-27T16:45:40.649Z,98412.38
2022-11-27T16:48:11.756Z,98412.56
2022-11-27T16:50:41.819Z,98407.34
2022-11-27T16:53:12.832Z,98401.69
2022-11-27T16:55:43.648Z,98405.16
2022-11-27T16:58:16.423Z,98393.75
2022-11-27T17:00:46.488Z,98384.66
2022-11-27T17:03:16.725Z,98382.31
2022-11-27T17:05:51.288Z,98383.19
2022-11-27T17:08:21.621Z,98379.50
2022-11-27T17:10:51.694Z,98377.38
2022-11-27T17:13:25.546Z,98370.13
2022-11-27T17:15:56.472Z,98366.28
2022-11-27T17:18:26.665Z,98362.75
2022-11-27T17:21:02.357Z,98348.59
2022-11-27T17:23:33.141Z,98343.53
2022-11-27T17:26:09.824Z,98342.56
2022-11-27T17:28:42.965Z,98339.00
2022-11-27T17:31:14.509Z,98336.16
2022-11-27T17:33:44.725Z,98330.25
2022-11-27T17:36:15.661Z,98318.91
2022-11-27T17:38:46.779Z,98315.03
2022-11-27T17:41:18.345Z,98314.13
2022-11-27T17:43:51.961Z,98314.28
2022-11-27T17:46:26.263Z,98300.34
2022-11-27T17:48:59.078Z,98301.78
2022-11-27T17:51:30.008Z,98303.06
2022-11-27T17:54:02.857Z,98312.06
2022-11-27T17:56:36.534Z,98308.00
2022-11-27T17:59:10.381Z,98311.38
2022-11-27T18:01:41.584Z,98307.31
2022-11-27T18:04:11.818Z,98298.78
2022-11-27T18:06:42.481Z,98298.09
2022-11-27T18:09:12.888Z,98301.19
2022-11-27T18:11:43.916Z,98303.66
2022-11-27T18:14:17.824Z,98296.41
2022-11-27T18:16:48.195Z,98287.00
2022-11-27T18:19:18.397Z,98279.66
2022-11-27T18:21:48.512Z,98267.88
2022-11-27T18:24:23.544Z,98258.06
2022-11-27T18:27:10.349Z,98258.59
2022-11-27T18:29:45.548Z,98252.72
2022-11-27T18:32:18.676Z,98244.09
2022-11-27T18:34:49.217Z,98254.41
2022-11-27T18:37:19.280Z,98267.59
2022-11-27T18:39:50.615Z,98255.91
2022-11-27T18:42:20.703Z,98255.72
2022-11-27T18:44:53.316Z,98264.03
2022-11-27T18:47:23.739Z,98266.78
2022-11-27T18:49:55.746Z,98259.00
2022-11-27T18:52:25.771Z,98267.72
2022-11-27T18:54:56.225Z,98264.34
2022-11-27T18:57:26.306Z,98258.09
2022-11-27T19:00:00.929Z,98254.34
2022-11-27T19:02:32.331Z,98245.47
2022-11-27T19:05:03.069Z,98242.81
2022-11-27T19:07:33.164Z,98236.81
2022-11-27T19:10:03.293Z,98239.34
2022-11-27T19:12:33.969Z,98239.69
2022-11-27T19:15:08.882Z,98234.28
2022-11-27T19:17:39.152Z,98239.94
2022-11-27T19:20:11.671Z,98227.75
2022-11-27T19:22:41.750Z,98233.25
2022-11-27T19:25:12.737Z,98225.09
2022-11-27T19:27:42.761Z,98212.81
2022-11-27T19:30:16.884Z,98205.16
2022-11-27T19:32:48.146Z,98207.53
2022-11-27T19:35:22.176Z,98211.69
2022-11-27T19:37:52.676Z,98198.72
2022-11-27T19:40:24.505Z,98189.47
2022-11-27T19:42:59.534Z,98184.81
2022-11-27T19:45:33.848Z,98178.16
2022-11-27T19:48:04.252Z,98171.97
2022-11-27T19:50:35.449Z,98167.09
2022-11-27T19:53:07.285Z,98163.31
2022-11-27T19:55:37.635Z,98156.84
2022-11-27T19:58:07.756Z,98151.31
2022-11-27T20:00:40.512Z,98139.16
2022-11-27T20:03:10.621Z,98133.34
2022-11-27T20:05:40.778Z,98140.56
2022-11-27T20:08:11.299Z,98154.72
2022-11-27T20:10:42.152Z,98146.38
2022-11-27T20:13:12.567Z,98141.22
2022-11-27T20:15:45.136Z,98144.97
2022-11-27T20:18:17.408Z,98156.91
2022-11-27T20:20:47.789Z,98157.78
2022-11-27T20:23:18.444Z,98166.25
2022-11-27T20:25:50.582Z,98158.25
2022-11-27T20:28:20.901Z,98160.06
2022-11-27T20:30:59.875Z,98158.88
2022-11-27T20:33:30.257Z,98154.56
2022-11-27T20:36:02.298Z,98144.75
2022-11-27T20:38:32.453Z,98142.25
2022-11-27T20:41:02.685Z,98133.78
2022-11-27T20:43:32.812Z,98137.19
2022-11-27T20:46:05.797Z,98135.72
2022-11-27T20:48:36.883Z,98130.34
2022-11-27T20:51:13.768Z,98129.28
2022-11-27T20:53:46.051Z,98126.38
2022-11-27T20:56:20.580Z,98124.19
2022-11-27T20:58:51.987Z,98122.91
2022-11-27T21:01:27.201Z,98125.09
2022-11-27T21:03:59.097Z,98130.41
2022-11-27T21:06:31.748Z,98115.44
2022-11-27T21:09:04.429Z,98103.78
2022-11-27T21:11:35.742Z,98100.56
2022-11-27T21:14:09.661Z,98113.31
2022-11-27T21:16:46.940Z,98111.53
2022-11-27T21:19:20.830Z,98097.19
2022-11-27T21:21:54.196Z,98098.44
2022-11-27T21:24:28.744Z,98090.50
2022-11-27T21:26:59.412Z,98102.00
2022-11-27T21:29:30.807Z,98098.13
2022-11-27T21:32:04.030Z,98093.06
2022-11-27T21:34:34.116Z,98083.69
2022-11-27T21:37:04.256Z,98074.75
2022-11-27T21:39:34.447Z,98090.50
2022-11-27T21:42:06.739Z,98079.97
2022-11-27T21:44:41.338Z,98086.50
2022-11-27T21:47:14.325Z,98089.50
2022-11-27T21:49:44.765Z,98089.69
2022-11-27T21:52:16.257Z,98087.34
2022-11-27T21:54:46.357Z,98091.94
2022-11-27T21:57:18.718Z,98095.66
2022-11-27T21:59:48.718Z,98083.88
2022-11-27T22:02:21.616Z,98082.78
2022-11-27T22:04:51.645Z,98089.59
2022-11-27T22:07:21.683Z,98075.84
2022-11-27T22:09:51.709Z,98078.38
2022-11-27T22:12:21.762Z,98073.03
2022-11-27T22:14:52.902Z,98064.19
2022-11-27T22:17:25.873Z,98063.53
2022-11-27T22:19:56.548Z,98056.28
2022-11-27T22:22:26.952Z,98051.22
2022-11-27T22:24:57.061Z,98059.75
2022-11-27T22:27:27.133Z,98060.03
2022-11-27T22:29:57.258Z,98050.28
2022-11-27T22:32:29.932Z,98049.66
2022-11-27T22:35:01.088Z,98034.22
2022-11-27T22:37:31.186Z,98036.88
2022-11-27T22:40:01.661Z,98034.34
2022-11-27T22:42:31.732Z,98046.19
2022-11-27T22:45:01.764Z,98043.31
2022-11-27T22:47:34.701Z,98045.69
2022-11-27T22:50:05.030Z,98049.44
2022-11-27T22:52:35.343Z,98052.75
2022-11-27T22:55:06.087Z,98042.72
2022-11-27T22:57:36.947Z,98037.06
2022-11-27T23:00:11.488Z,98029.78
2022-11-27T23:02:44.151Z,98019.09
2022-11-27T23:05:14.233Z,98004.81
2022-11-27T23:07:44.599Z,98001.78
2022-11-27T23:10:15.385Z,97983.31
2022-11-27T23:12:45.652Z,97985.19
2022-11-27T23:15:15.776Z,97987.47
2022-11-27T23:17:48.430Z,97980.94
2022-11-27T23:20:18.668Z,97988.41
2022-11-27T23:22:48.699Z,97991.50
2022-11-27T23:25:19.002Z,97987.84
2022-11-27T23:27:49.100Z,97972.44
2022-11-27T23:30:20.059Z,97967.78
2022-11-27T23:32:52.770Z,97963.75
2022-11-27T23:35:22.849Z,97959.16
2022-11-27T23:37:53.155Z,97950.47
2022-11-27T23:40:23.636Z,97942.94
2022-11-27T23:42:54.004Z,97942.34
2022-11-27T23:45:23.999Z,97936.44
2022-11-27T23:47:56.644Z,97944.69
2022-11-27T23:50:26.689Z,97924.00
2022-11-27T23:52:57.386Z,97909.19
2022-11-27T23:55:27.478Z,97918.97
2022-11-27T23:57:57.612Z,97947.59
